sensor_id;sensor_type;location;lat;lon;timestamp;temperature;humidity
678;DHT22;321;48.814;9.132;2022-10-16T00:00:40;17.10;99.90
678;DHT22;321;48.814;9.132;2022-10-16T00:03:06;17.10;99.90
678;DHT22;321;48.814;9.132;2022-10-16T00:05:32;17.00;99.90
678;DHT22;321;48.814;9.132;2022-10-16T00:10:23;17.10;99.90
678;DHT22;321;48.814;9.132;2022-10-16T00:12:49;17.00;99.90
678;DHT22;321;48.814;9.132;2022-10-16T00:15:15;17.40;99.90
678;DHT22;321;48.814;9.132;2022-10-16T00:20:07;16.90;99.90
678;DHT22;321;48.814;9.132;2022-10-16T00:29:52;17.00;99.90
678;DHT22;321;48.814;9.132;2022-10-16T00:32:21;16.70;99.90
678;DHT22;321;48.814;9.132;2022-10-16T00:34:46;16.80;99.90
678;DHT22;321;48.814;9.132;2022-10-16T00:39:38;16.90;99.90
678;DHT22;321;48.814;9.132;2022-10-16T00:42:04;16.70;99.90
678;DHT22;321;48.814;9.132;2022-10-16T00:47:15;16.50;99.90
678;DHT22;321;48.814;9.132;2022-10-16T00:52:10;16.30;99.90
678;DHT22;321;48.814;9.132;2022-10-16T00:54:36;15.90;99.90
678;DHT22;321;48.814;9.132;2022-10-16T00:57:05;16.20;99.90
678;DHT22;321;48.814;9.132;2022-10-16T00:59:41;15.80;99.90
678;DHT22;321;48.814;9.132;2022-10-16T01:02:11;16.20;99.90
678;DHT22;321;48.814;9.132;2022-10-16T01:04:42;16.10;99.90
678;DHT22;321;48.814;9.132;2022-10-16T01:07:34;16.30;99.90
678;DHT22;321;48.814;9.132;2022-10-16T01:15:30;16.40;99.90
678;DHT22;321;48.814;9.132;2022-10-16T01:18:08;16.40;99.90
678;DHT22;321;48.814;9.132;2022-10-16T01:20:42;16.40;99.90
678;DHT22;321;48.814;9.132;2022-10-16T01:28:55;16.40;99.90
678;DHT22;321;48.814;9.132;2022-10-16T01:31:26;16.70;99.90
678;DHT22;321;48.814;9.132;2022-10-16T01:34:20;16.50;99.90
678;DHT22;321;48.814;9.132;2022-10-16T01:36:54;16.70;99.90
678;DHT22;321;48.814;9.132;2022-10-16T01:39:26;16.60;99.90
678;DHT22;321;48.814;9.132;2022-10-16T01:42:16;16.60;99.90
678;DHT22;321;48.814;9.132;2022-10-16T01:44:46;16.60;99.90
678;DHT22;321;48.814;9.132;2022-10-16T01:47:14;16.70;99.90
678;DHT22;321;48.814;9.132;2022-10-16T01:49:41;16.80;99.90
678;DHT22;321;48.814;9.132;2022-10-16T01:52:12;16.80;99.90
678;DHT22;321;48.814;9.132;2022-10-16T01:54:41;16.70;99.90
678;DHT22;321;48.814;9.132;2022-10-16T01:57:08;16.50;99.90
678;DHT22;321;48.814;9.132;2022-10-16T01:59:38;16.70;99.90
678;DHT22;321;48.814;9.132;2022-10-16T02:02:07;16.40;99.90
678;DHT22;321;48.814;9.132;2022-10-16T02:04:43;15.80;99.90
678;DHT22;321;48.814;9.132;2022-10-16T02:07:10;16.40;99.90
678;DHT22;321;48.814;9.132;2022-10-16T02:09:36;16.50;99.90
678;DHT22;321;48.814;9.132;2022-10-16T02:12:31;16.40;99.90
678;DHT22;321;48.814;9.132;2022-10-16T02:17:24;16.60;99.90
678;DHT22;321;48.814;9.132;2022-10-16T02:19:52;16.50;99.90
678;DHT22;321;48.814;9.132;2022-10-16T02:22:35;16.50;99.90
678;DHT22;321;48.814;9.132;2022-10-16T02:25:31;16.50;99.90
678;DHT22;321;48.814;9.132;2022-10-16T02:30:43;16.50;99.90
678;DHT22;321;48.814;9.132;2022-10-16T02:33:11;16.80;99.90
678;DHT22;321;48.814;9.132;2022-10-16T02:35:40;16.90;99.90
678;DHT22;321;48.814;9.132;2022-10-16T02:38:06;17.10;99.90
678;DHT22;321;48.814;9.132;2022-10-16T02:40:33;17.00;99.90
678;DHT22;321;48.814;9.132;2022-10-16T02:42:59;17.10;99.90
678;DHT22;321;48.814;9.132;2022-10-16T02:45:24;17.10;99.90
678;DHT22;321;48.814;9.132;2022-10-16T02:47:50;17.50;99.90
678;DHT22;321;48.814;9.132;2022-10-16T02:50:16;17.10;99.90
678;DHT22;321;48.814;9.132;2022-10-16T02:52:42;17.20;99.90
678;DHT22;321;48.814;9.132;2022-10-16T02:57:34;17.00;99.90
678;DHT22;321;48.814;9.132;2022-10-16T03:00:03;17.00;99.90
678;DHT22;321;48.814;9.132;2022-10-16T03:02:29;17.10;99.90
678;DHT22;321;48.814;9.132;2022-10-16T03:07:20;17.10;99.90
678;DHT22;321;48.814;9.132;2022-10-16T03:12:12;16.50;99.90
678;DHT22;321;48.814;9.132;2022-10-16T03:17:05;17.00;99.90
678;DHT22;321;48.814;9.132;2022-10-16T03:19:30;17.00;99.90
678;DHT22;321;48.814;9.132;2022-10-16T03:29:14;16.90;99.90
678;DHT22;321;48.814;9.132;2022-10-16T03:31:40;16.80;99.90
678;DHT22;321;48.814;9.132;2022-10-16T03:38:57;16.90;99.90
678;DHT22;321;48.814;9.132;2022-10-16T03:51:09;16.80;99.90
678;DHT22;321;48.814;9.132;2022-10-16T03:53:34;16.70;99.90
678;DHT22;321;48.814;9.132;2022-10-16T03:56:00;16.70;99.90
678;DHT22;321;48.814;9.132;2022-10-16T04:05:44;17.00;99.90
678;DHT22;321;48.814;9.132;2022-10-16T04:22:46;16.40;99.90
678;DHT22;321;48.814;9.132;2022-10-16T04:27:38;16.40;99.90
678;DHT22;321;48.814;9.132;2022-10-16T04:30:04;16.50;99.90
678;DHT22;321;48.814;9.132;2022-10-16T04:32:30;16.50;99.90
678;DHT22;321;48.814;9.132;2022-10-16T04:37:25;16.50;99.90
678;DHT22;321;48.814;9.132;2022-10-16T04:39:52;16.50;99.90
678;DHT22;321;48.814;9.132;2022-10-16T04:42:17;16.80;99.90
678;DHT22;321;48.814;9.132;2022-10-16T04:54:27;16.60;99.90
678;DHT22;321;48.814;9.132;2022-10-16T04:56:52;16.70;99.90
678;DHT22;321;48.814;9.132;2022-10-16T04:59:19;17.20;99.90
678;DHT22;321;48.814;9.132;2022-10-16T05:01:45;16.60;99.90
678;DHT22;321;48.814;9.132;2022-10-16T05:04:11;16.60;99.90
678;DHT22;321;48.814;9.132;2022-10-16T05:06:37;16.70;99.90
678;DHT22;321;48.814;9.132;2022-10-16T05:09:04;16.60;99.90
678;DHT22;321;48.814;9.132;2022-10-16T05:11:31;16.40;99.90
678;DHT22;321;48.814;9.132;2022-10-16T05:13:56;16.40;99.90
678;DHT22;321;48.814;9.132;2022-10-16T05:26:06;16.30;99.90
678;DHT22;321;48.814;9.132;2022-10-16T05:30:57;16.40;99.90
678;DHT22;321;48.814;9.132;2022-10-16T05:33:25;16.40;99.90
678;DHT22;321;48.814;9.132;2022-10-16T05:35:51;16.60;99.90
678;DHT22;321;48.814;9.132;2022-10-16T05:38:17;16.80;99.90
678;DHT22;321;48.814;9.132;2022-10-16T05:40:50;16.40;99.90
678;DHT22;321;48.814;9.132;2022-10-16T05:43:15;16.10;99.90
678;DHT22;321;48.814;9.132;2022-10-16T05:57:54;16.40;99.90
678;DHT22;321;48.814;9.132;2022-10-16T06:10:04;16.20;99.90
678;DHT22;321;48.814;9.132;2022-10-16T06:12:30;16.40;99.90
678;DHT22;321;48.814;9.132;2022-10-16T06:24:39;16.50;99.90
678;DHT22;321;48.814;9.132;2022-10-16T06:27:06;16.50;99.90
678;DHT22;321;48.814;9.132;2022-10-16T06:29:31;16.40;99.90
678;DHT22;321;48.814;9.132;2022-10-16T06:31:57;16.50;99.90
678;DHT22;321;48.814;9.132;2022-10-16T06:34:22;16.50;99.90
678;DHT22;321;48.814;9.132;2022-10-16T06:39:14;17.00;99.90
678;DHT22;321;48.814;9.132;2022-10-16T06:41:39;16.80;99.90
678;DHT22;321;48.814;9.132;2022-10-16T06:44:06;16.70;99.90
678;DHT22;321;48.814;9.132;2022-10-16T06:53:53;16.80;99.90
678;DHT22;321;48.814;9.132;2022-10-16T06:56:21;16.90;99.90
678;DHT22;321;48.814;9.132;2022-10-16T06:58:47;16.90;99.90
678;DHT22;321;48.814;9.132;2022-10-16T07:01:14;16.90;99.90
678;DHT22;321;48.814;9.132;2022-10-16T07:03:41;16.90;99.90
678;DHT22;321;48.814;9.132;2022-10-16T07:06:08;17.00;99.90
678;DHT22;321;48.814;9.132;2022-10-16T07:08:36;17.10;99.90
678;DHT22;321;48.814;9.132;2022-10-16T07:11:10;17.30;99.90
678;DHT22;321;48.814;9.132;2022-10-16T07:13:37;17.50;99.90
678;DHT22;321;48.814;9.132;2022-10-16T07:16:18;17.60;99.90
678;DHT22;321;48.814;9.132;2022-10-16T07:18:44;17.80;99.90
678;DHT22;321;48.814;9.132;2022-10-16T07:21:14;17.70;99.90
678;DHT22;321;48.814;9.132;2022-10-16T07:26:07;17.50;99.90
678;DHT22;321;48.814;9.132;2022-10-16T07:28:33;17.60;99.90
678;DHT22;321;48.814;9.132;2022-10-16T07:31:07;17.50;99.90
678;DHT22;321;48.814;9.132;2022-10-16T07:33:34;17.40;99.90
678;DHT22;321;48.814;9.132;2022-10-16T07:35:59;17.40;99.90
678;DHT22;321;48.814;9.132;2022-10-16T07:38:25;17.40;99.90
678;DHT22;321;48.814;9.132;2022-10-16T07:41:02;17.60;99.90
678;DHT22;321;48.814;9.132;2022-10-16T07:43:28;17.30;99.90
678;DHT22;321;48.814;9.132;2022-10-16T07:48:22;17.50;99.90
678;DHT22;321;48.814;9.132;2022-10-16T07:50:47;17.80;99.90
678;DHT22;321;48.814;9.132;2022-10-16T07:53:13;17.70;99.90
678;DHT22;321;48.814;9.132;2022-10-16T07:55:40;17.70;99.90
678;DHT22;321;48.814;9.132;2022-10-16T08:00:33;18.00;99.90
678;DHT22;321;48.814;9.132;2022-10-16T08:05:29;17.90;99.90
678;DHT22;321;48.814;9.132;2022-10-16T08:07:56;18.20;99.90
678;DHT22;321;48.814;9.132;2022-10-16T08:10:24;18.40;99.90
678;DHT22;321;48.814;9.132;2022-10-16T08:12:50;17.90;99.90
678;DHT22;321;48.814;9.132;2022-10-16T08:15:17;18.40;99.90
678;DHT22;321;48.814;9.132;2022-10-16T08:17:42;18.30;99.90
678;DHT22;321;48.814;9.132;2022-10-16T08:20:08;18.50;99.90
678;DHT22;321;48.814;9.132;2022-10-16T08:22:34;18.40;99.90
678;DHT22;321;48.814;9.132;2022-10-16T08:27:31;19.00;99.90
678;DHT22;321;48.814;9.132;2022-10-16T08:29:57;19.40;99.90
678;DHT22;321;48.814;9.132;2022-10-16T08:37:14;20.40;99.90
678;DHT22;321;48.814;9.132;2022-10-16T08:39:40;21.00;99.90
678;DHT22;321;48.814;9.132;2022-10-16T08:50:21;20.30;99.90
678;DHT22;321;48.814;9.132;2022-10-16T08:52:49;20.50;99.90
678;DHT22;321;48.814;9.132;2022-10-16T08:55:51;20.60;99.90
678;DHT22;321;48.814;9.132;2022-10-16T08:58:21;20.70;99.90
678;DHT22;321;48.814;9.132;2022-10-16T09:00:54;20.60;99.90
678;DHT22;321;48.814;9.132;2022-10-16T09:06:43;20.20;99.90
678;DHT22;321;48.814;9.132;2022-10-16T09:15:07;20.40;99.90
678;DHT22;321;48.814;9.132;2022-10-16T09:20:42;20.70;99.90
678;DHT22;321;48.814;9.132;2022-10-16T09:23:18;20.50;99.90
678;DHT22;321;48.814;9.132;2022-10-16T09:25:47;20.70;99.90
678;DHT22;321;48.814;9.132;2022-10-16T09:33:08;20.90;99.90
678;DHT22;321;48.814;9.132;2022-10-16T09:35:49;21.00;99.90
678;DHT22;321;48.814;9.132;2022-10-16T09:38:28;21.00;99.90
678;DHT22;321;48.814;9.132;2022-10-16T09:40:56;20.50;99.90
678;DHT22;321;48.814;9.132;2022-10-16T09:43:31;20.60;99.90
678;DHT22;321;48.814;9.132;2022-10-16T09:51:03;20.70;99.90
678;DHT22;321;48.814;9.132;2022-10-16T09:53:42;21.20;99.90
678;DHT22;321;48.814;9.132;2022-10-16T09:56:10;21.40;99.90
678;DHT22;321;48.814;9.132;2022-10-16T09:58:42;21.60;99.90
678;DHT22;321;48.814;9.132;2022-10-16T10:01:13;21.90;99.90
678;DHT22;321;48.814;9.132;2022-10-16T10:03:41;22.00;99.90
678;DHT22;321;48.814;9.132;2022-10-16T10:06:29;22.20;99.90
678;DHT22;321;48.814;9.132;2022-10-16T10:09:05;22.30;99.90
678;DHT22;321;48.814;9.132;2022-10-16T10:11:43;22.50;99.90
678;DHT22;321;48.814;9.132;2022-10-16T10:16:48;23.00;99.90
678;DHT22;321;48.814;9.132;2022-10-16T10:19:21;23.20;99.90
678;DHT22;321;48.814;9.132;2022-10-16T10:21:48;22.70;99.90
678;DHT22;321;48.814;9.132;2022-10-16T10:24:15;22.70;99.90
678;DHT22;321;48.814;9.132;2022-10-16T10:26:57;22.80;99.90
678;DHT22;321;48.814;9.132;2022-10-16T10:29:48;22.80;99.90
678;DHT22;321;48.814;9.132;2022-10-16T10:32:41;22.80;99.90
678;DHT22;321;48.814;9.132;2022-10-16T10:35:28;23.00;99.90
678;DHT22;321;48.814;9.132;2022-10-16T10:38:11;23.30;99.90
678;DHT22;321;48.814;9.132;2022-10-16T10:41:04;23.40;99.90
678;DHT22;321;48.814;9.132;2022-10-16T10:57:25;24.40;99.90
678;DHT22;321;48.814;9.132;2022-10-16T11:00:16;24.10;99.90
678;DHT22;321;48.814;9.132;2022-10-16T11:07:52;24.00;99.90
678;DHT22;321;48.814;9.132;2022-10-16T11:10:33;23.30;99.90
678;DHT22;321;48.814;9.132;2022-10-16T11:13:24;23.30;99.90
678;DHT22;321;48.814;9.132;2022-10-16T11:15:57;23.30;99.90
678;DHT22;321;48.814;9.132;2022-10-16T11:18:33;23.50;99.90
678;DHT22;321;48.814;9.132;2022-10-16T11:21:07;23.80;99.90
678;DHT22;321;48.814;9.132;2022-10-16T11:23:42;24.00;99.90
678;DHT22;321;48.814;9.132;2022-10-16T11:26:28;24.20;99.90
678;DHT22;321;48.814;9.132;2022-10-16T11:28:56;24.20;99.90
678;DHT22;321;48.814;9.132;2022-10-16T11:31:36;24.40;99.90
678;DHT22;321;48.814;9.132;2022-10-16T11:39:26;25.00;99.90
678;DHT22;321;48.814;9.132;2022-10-16T11:42:10;25.20;99.90
678;DHT22;321;48.814;9.132;2022-10-16T11:47:30;24.90;99.00
678;DHT22;321;48.814;9.132;2022-10-16T11:52:53;25.40;99.90
678;DHT22;321;48.814;9.132;2022-10-16T11:55:23;25.70;99.20
678;DHT22;321;48.814;9.132;2022-10-16T11:57:59;25.80;99.30
678;DHT22;321;48.814;9.132;2022-10-16T12:00:31;25.60;99.00
678;DHT22;321;48.814;9.132;2022-10-16T12:03:19;25.40;99.60
678;DHT22;321;48.814;9.132;2022-10-16T12:08:25;24.90;99.90
678;DHT22;321;48.814;9.132;2022-10-16T12:10:51;24.60;99.90
678;DHT22;321;48.814;9.132;2022-10-16T12:13:38;24.30;99.90
678;DHT22;321;48.814;9.132;2022-10-16T12:18:44;23.90;99.90
678;DHT22;321;48.814;9.132;2022-10-16T12:21:12;23.80;99.90
678;DHT22;321;48.814;9.132;2022-10-16T12:23:54;23.70;99.90
678;DHT22;321;48.814;9.132;2022-10-16T12:26:26;23.70;99.90
678;DHT22;321;48.814;9.132;2022-10-16T12:28:53;23.70;99.90
678;DHT22;321;48.814;9.132;2022-10-16T12:31:19;23.70;99.90
678;DHT22;321;48.814;9.132;2022-10-16T12:33:58;23.80;99.90
678;DHT22;321;48.814;9.132;2022-10-16T12:36:33;23.90;99.90
678;DHT22;321;48.814;9.132;2022-10-16T12:39:00;24.00;99.90
678;DHT22;321;48.814;9.132;2022-10-16T12:41:29;24.10;99.90
678;DHT22;321;48.814;9.132;2022-10-16T12:43:55;24.10;99.90
678;DHT22;321;48.814;9.132;2022-10-16T12:51:40;24.20;99.90
678;DHT22;321;48.814;9.132;2022-10-16T12:54:31;24.00;99.90
678;DHT22;321;48.814;9.132;2022-10-16T13:08:12;23.20;99.90
678;DHT22;321;48.814;9.132;2022-10-16T13:13:55;23.00;99.90
678;DHT22;321;48.814;9.132;2022-10-16T13:16:30;23.10;99.90
678;DHT22;321;48.814;9.132;2022-10-16T13:22:17;23.20;99.90
678;DHT22;321;48.814;9.132;2022-10-16T13:30:51;23.30;99.90
678;DHT22;321;48.814;9.132;2022-10-16T13:33:26;23.30;99.90
678;DHT22;321;48.814;9.132;2022-10-16T13:35:56;23.30;99.90
678;DHT22;321;48.814;9.132;2022-10-16T13:38:34;23.40;99.90
678;DHT22;321;48.814;9.132;2022-10-16T13:41:05;24.10;99.90
678;DHT22;321;48.814;9.132;2022-10-16T13:46:10;23.40;99.90
678;DHT22;321;48.814;9.132;2022-10-16T13:51:06;23.70;99.90
678;DHT22;321;48.814;9.132;2022-10-16T13:53:34;23.70;99.90
678;DHT22;321;48.814;9.132;2022-10-16T13:56:02;23.70;99.90
678;DHT22;321;48.814;9.132;2022-10-16T13:58:28;23.90;99.90
678;DHT22;321;48.814;9.132;2022-10-16T14:00:56;23.90;99.90
678;DHT22;321;48.814;9.132;2022-10-16T14:03:23;23.50;99.90
678;DHT22;321;48.814;9.132;2022-10-16T14:05:52;23.20;99.90
678;DHT22;321;48.814;9.132;2022-10-16T14:08:19;23.50;99.90
678;DHT22;321;48.814;9.132;2022-10-16T14:10:49;23.60;99.90
678;DHT22;321;48.814;9.132;2022-10-16T14:13:18;23.20;99.90
678;DHT22;321;48.814;9.132;2022-10-16T14:15:49;23.20;99.90
678;DHT22;321;48.814;9.132;2022-10-16T14:18:22;23.20;99.90
678;DHT22;321;48.814;9.132;2022-10-16T14:20:49;23.40;99.90
678;DHT22;321;48.814;9.132;2022-10-16T14:23:44;23.20;99.90
678;DHT22;321;48.814;9.132;2022-10-16T14:28:38;23.90;99.90
678;DHT22;321;48.814;9.132;2022-10-16T14:33:50;23.50;99.90
678;DHT22;321;48.814;9.132;2022-10-16T14:36:16;24.70;99.90
678;DHT22;321;48.814;9.132;2022-10-16T14:39:14;23.60;99.90
678;DHT22;321;48.814;9.132;2022-10-16T14:41:50;23.60;99.90
678;DHT22;321;48.814;9.132;2022-10-16T14:44:18;23.60;99.90
678;DHT22;321;48.814;9.132;2022-10-16T14:46:45;23.60;99.90
678;DHT22;321;48.814;9.132;2022-10-16T14:51:41;23.60;99.90
678;DHT22;321;48.814;9.132;2022-10-16T14:54:08;23.60;99.90
678;DHT22;321;48.814;9.132;2022-10-16T14:56:55;23.40;99.90
678;DHT22;321;48.814;9.132;2022-10-16T14:59:28;23.40;99.90
678;DHT22;321;48.814;9.132;2022-10-16T15:01:55;23.20;99.90
678;DHT22;321;48.814;9.132;2022-10-16T15:04:21;22.90;99.90
678;DHT22;321;48.814;9.132;2022-10-16T15:06:47;22.70;99.90
678;DHT22;321;48.814;9.132;2022-10-16T15:09:12;22.80;99.90
678;DHT22;321;48.814;9.132;2022-10-16T15:11:38;22.70;99.90
678;DHT22;321;48.814;9.132;2022-10-16T15:14:04;23.00;99.90
678;DHT22;321;48.814;9.132;2022-10-16T15:16:30;23.70;99.90
678;DHT22;321;48.814;9.132;2022-10-16T15:21:31;22.70;99.90
678;DHT22;321;48.814;9.132;2022-10-16T15:23:58;22.70;99.90
678;DHT22;321;48.814;9.132;2022-10-16T15:26:25;22.70;99.90
678;DHT22;321;48.814;9.132;2022-10-16T15:28:52;22.30;99.90
678;DHT22;321;48.814;9.132;2022-10-16T15:31:18;22.40;99.90
678;DHT22;321;48.814;9.132;2022-10-16T15:33:43;22.10;99.90
678;DHT22;321;48.814;9.132;2022-10-16T15:36:09;22.10;99.90
678;DHT22;321;48.814;9.132;2022-10-16T15:38:35;21.90;99.90
678;DHT22;321;48.814;9.132;2022-10-16T15:41:01;22.00;99.90
678;DHT22;321;48.814;9.132;2022-10-16T15:43:27;22.00;99.90
678;DHT22;321;48.814;9.132;2022-10-16T15:46:02;22.00;99.90
678;DHT22;321;48.814;9.132;2022-10-16T15:48:29;22.10;99.90
678;DHT22;321;48.814;9.132;2022-10-16T15:50:55;21.90;99.90
678;DHT22;321;48.814;9.132;2022-10-16T15:53:20;23.20;99.90
678;DHT22;321;48.814;9.132;2022-10-16T15:55:46;21.80;99.90
678;DHT22;321;48.814;9.132;2022-10-16T15:58:12;21.80;99.90
678;DHT22;321;48.814;9.132;2022-10-16T16:00:37;21.90;99.90
678;DHT22;321;48.814;9.132;2022-10-16T16:03:03;21.70;99.90
678;DHT22;321;48.814;9.132;2022-10-16T16:05:29;21.70;99.90
678;DHT22;321;48.814;9.132;2022-10-16T16:07:55;21.50;99.90
678;DHT22;321;48.814;9.132;2022-10-16T16:10:20;21.40;99.90
678;DHT22;321;48.814;9.132;2022-10-16T16:12:49;21.30;99.90
678;DHT22;321;48.814;9.132;2022-10-16T16:15:21;21.30;99.90
678;DHT22;321;48.814;9.132;2022-10-16T16:17:47;21.20;99.90
678;DHT22;321;48.814;9.132;2022-10-16T16:20:13;21.20;99.90
678;DHT22;321;48.814;9.132;2022-10-16T16:22:38;21.70;99.90
678;DHT22;321;48.814;9.132;2022-10-16T16:25:04;20.90;99.90
678;DHT22;321;48.814;9.132;2022-10-16T16:27:30;20.70;99.90
678;DHT22;321;48.814;9.132;2022-10-16T16:29:59;22.00;99.90
678;DHT22;321;48.814;9.132;2022-10-16T16:32:24;20.90;99.90
678;DHT22;321;48.814;9.132;2022-10-16T16:34:50;20.30;99.90
678;DHT22;321;48.814;9.132;2022-10-16T16:37:16;20.10;99.90
678;DHT22;321;48.814;9.132;2022-10-16T16:39:41;20.00;99.90
678;DHT22;321;48.814;9.132;2022-10-16T16:42:07;20.10;99.90
678;DHT22;321;48.814;9.132;2022-10-16T16:44:33;19.70;99.90
678;DHT22;321;48.814;9.132;2022-10-16T16:47:02;19.70;99.90
678;DHT22;321;48.814;9.132;2022-10-16T16:49:30;19.50;99.90
678;DHT22;321;48.814;9.132;2022-10-16T16:51:56;19.30;99.90
678;DHT22;321;48.814;9.132;2022-10-16T16:56:47;19.30;99.90
678;DHT22;321;48.814;9.132;2022-10-16T16:59:15;19.30;99.90
678;DHT22;321;48.814;9.132;2022-10-16T17:01:44;19.10;99.90
678;DHT22;321;48.814;9.132;2022-10-16T17:04:10;19.10;99.90
678;DHT22;321;48.814;9.132;2022-10-16T17:06:36;20.10;99.90
678;DHT22;321;48.814;9.132;2022-10-16T17:09:04;19.00;99.90
678;DHT22;321;48.814;9.132;2022-10-16T17:11:30;18.90;99.90
678;DHT22;321;48.814;9.132;2022-10-16T17:13:57;18.90;99.90
678;DHT22;321;48.814;9.132;2022-10-16T17:16:31;18.90;99.90
678;DHT22;321;48.814;9.132;2022-10-16T17:19:05;18.90;99.90
678;DHT22;321;48.814;9.132;2022-10-16T17:21:31;18.70;99.90
678;DHT22;321;48.814;9.132;2022-10-16T17:23:57;18.70;99.90
678;DHT22;321;48.814;9.132;2022-10-16T17:26:23;18.60;99.90
678;DHT22;321;48.814;9.132;2022-10-16T17:28:53;18.50;99.90
678;DHT22;321;48.814;9.132;2022-10-16T17:31:28;18.70;99.90
678;DHT22;321;48.814;9.132;2022-10-16T17:33:54;18.50;99.90
678;DHT22;321;48.814;9.132;2022-10-16T17:36:21;18.20;99.90
678;DHT22;321;48.814;9.132;2022-10-16T17:38:47;18.20;99.90
678;DHT22;321;48.814;9.132;2022-10-16T17:41:20;18.00;99.90
678;DHT22;321;48.814;9.132;2022-10-16T17:43:50;18.00;99.90
678;DHT22;321;48.814;9.132;2022-10-16T17:46:18;17.90;99.90
678;DHT22;321;48.814;9.132;2022-10-16T17:48:46;18.10;99.90
678;DHT22;321;48.814;9.132;2022-10-16T17:51:15;17.80;99.90
678;DHT22;321;48.814;9.132;2022-10-16T17:53:41;17.80;99.90
678;DHT22;321;48.814;9.132;2022-10-16T17:56:10;17.70;99.90
678;DHT22;321;48.814;9.132;2022-10-16T17:58:36;17.70;99.90
678;DHT22;321;48.814;9.132;2022-10-16T18:01:11;17.50;99.90
678;DHT22;321;48.814;9.132;2022-10-16T18:03:37;17.50;99.90
678;DHT22;321;48.814;9.132;2022-10-16T18:06:03;18.00;99.90
678;DHT22;321;48.814;9.132;2022-10-16T18:08:29;17.40;99.90
678;DHT22;321;48.814;9.132;2022-10-16T18:10:55;17.40;99.90
678;DHT22;321;48.814;9.132;2022-10-16T18:13:20;17.40;99.90
678;DHT22;321;48.814;9.132;2022-10-16T18:15:46;17.40;99.90
678;DHT22;321;48.814;9.132;2022-10-16T18:18:11;17.30;99.90
678;DHT22;321;48.814;9.132;2022-10-16T18:20:37;17.20;99.90
678;DHT22;321;48.814;9.132;2022-10-16T18:23:03;17.30;99.90
678;DHT22;321;48.814;9.132;2022-10-16T18:25:28;17.20;99.90
678;DHT22;321;48.814;9.132;2022-10-16T18:30:20;17.00;99.90
678;DHT22;321;48.814;9.132;2022-10-16T18:32:46;16.60;99.90
678;DHT22;321;48.814;9.132;2022-10-16T18:40:04;16.90;99.90
678;DHT22;321;48.814;9.132;2022-10-16T18:42:30;16.90;99.90
678;DHT22;321;48.814;9.132;2022-10-16T18:44:56;16.70;99.90
678;DHT22;321;48.814;9.132;2022-10-16T18:47:21;16.50;99.90
678;DHT22;321;48.814;9.132;2022-10-16T18:49:48;16.40;99.90
678;DHT22;321;48.814;9.132;2022-10-16T18:52:14;16.80;99.90
678;DHT22;321;48.814;9.132;2022-10-16T18:57:06;16.80;99.90
678;DHT22;321;48.814;9.132;2022-10-16T18:59:31;16.70;99.90
678;DHT22;321;48.814;9.132;2022-10-16T19:01:57;16.70;99.90
678;DHT22;321;48.814;9.132;2022-10-16T19:04:22;16.80;99.90
678;DHT22;321;48.814;9.132;2022-10-16T19:06:50;16.90;99.90
678;DHT22;321;48.814;9.132;2022-10-16T19:09:18;16.70;99.90
678;DHT22;321;48.814;9.132;2022-10-16T19:11:44;16.70;99.90
678;DHT22;321;48.814;9.132;2022-10-16T19:14:11;17.10;99.90
678;DHT22;321;48.814;9.132;2022-10-16T19:16:37;16.60;99.90
678;DHT22;321;48.814;9.132;2022-10-16T19:19:06;16.50;99.90
678;DHT22;321;48.814;9.132;2022-10-16T19:21:34;16.80;99.90
678;DHT22;321;48.814;9.132;2022-10-16T19:24:01;16.70;99.90
678;DHT22;321;48.814;9.132;2022-10-16T19:26:28;16.80;99.90
678;DHT22;321;48.814;9.132;2022-10-16T19:28:55;16.70;99.90
678;DHT22;321;48.814;9.132;2022-10-16T19:33:54;16.70;99.90
678;DHT22;321;48.814;9.132;2022-10-16T19:36:25;17.10;99.90
678;DHT22;321;48.814;9.132;2022-10-16T19:38:54;16.60;99.90
678;DHT22;321;48.814;9.132;2022-10-16T19:41:20;16.60;99.90
678;DHT22;321;48.814;9.132;2022-10-16T19:43:48;16.60;99.90
678;DHT22;321;48.814;9.132;2022-10-16T19:46:16;16.60;99.90
678;DHT22;321;48.814;9.132;2022-10-16T19:48:42;16.70;99.90
678;DHT22;321;48.814;9.132;2022-10-16T19:51:17;16.70;99.90
678;DHT22;321;48.814;9.132;2022-10-16T19:53:44;16.70;99.90
678;DHT22;321;48.814;9.132;2022-10-16T19:56:18;16.70;99.90
678;DHT22;321;48.814;9.132;2022-10-16T19:58:46;16.80;99.90
678;DHT22;321;48.814;9.132;2022-10-16T20:01:14;18.40;99.90
678;DHT22;321;48.814;9.132;2022-10-16T20:03:42;16.90;99.90
678;DHT22;321;48.814;9.132;2022-10-16T20:08:36;16.90;99.90
678;DHT22;321;48.814;9.132;2022-10-16T20:11:03;17.10;99.90
678;DHT22;321;48.814;9.132;2022-10-16T20:13:29;17.20;99.90
678;DHT22;321;48.814;9.132;2022-10-16T20:15:55;17.20;99.90
678;DHT22;321;48.814;9.132;2022-10-16T20:18:21;17.30;99.90
678;DHT22;321;48.814;9.132;2022-10-16T20:20:48;17.10;99.90
678;DHT22;321;48.814;9.132;2022-10-16T20:23:16;17.40;99.90
678;DHT22;321;48.814;9.132;2022-10-16T20:25:42;17.40;99.90
678;DHT22;321;48.814;9.132;2022-10-16T20:28:12;17.40;99.90
678;DHT22;321;48.814;9.132;2022-10-16T20:30:41;17.30;99.90
678;DHT22;321;48.814;9.132;2022-10-16T20:33:07;17.20;99.90
678;DHT22;321;48.814;9.132;2022-10-16T20:35:40;17.20;99.90
678;DHT22;321;48.814;9.132;2022-10-16T20:38:06;17.30;99.90
678;DHT22;321;48.814;9.132;2022-10-16T20:40:37;17.30;99.90
678;DHT22;321;48.814;9.132;2022-10-16T20:47:56;17.30;99.90
678;DHT22;321;48.814;9.132;2022-10-16T20:50:22;17.20;99.90
678;DHT22;321;48.814;9.132;2022-10-16T20:52:48;17.50;99.90
678;DHT22;321;48.814;9.132;2022-10-16T20:55:13;17.20;99.90
678;DHT22;321;48.814;9.132;2022-10-16T20:57:41;17.30;99.90
678;DHT22;321;48.814;9.132;2022-10-16T21:00:07;17.20;99.90
678;DHT22;321;48.814;9.132;2022-10-16T21:02:33;17.30;99.90
678;DHT22;321;48.814;9.132;2022-10-16T21:04:58;17.10;99.90
678;DHT22;321;48.814;9.132;2022-10-16T21:07:25;17.10;99.90
678;DHT22;321;48.814;9.132;2022-10-16T21:09:50;17.00;99.90
678;DHT22;321;48.814;9.132;2022-10-16T21:12:18;17.00;99.90
678;DHT22;321;48.814;9.132;2022-10-16T21:14:44;17.10;99.90
678;DHT22;321;48.814;9.132;2022-10-16T21:17:09;16.90;99.90
678;DHT22;321;48.814;9.132;2022-10-16T21:19:35;17.00;99.90
678;DHT22;321;48.814;9.132;2022-10-16T21:22:00;16.90;99.90
678;DHT22;321;48.814;9.132;2022-10-16T21:24:26;16.80;99.90
678;DHT22;321;48.814;9.132;2022-10-16T21:26:51;16.50;99.90
678;DHT22;321;48.814;9.132;2022-10-16T21:29:17;16.60;99.90
678;DHT22;321;48.814;9.132;2022-10-16T21:31:43;16.60;99.90
678;DHT22;321;48.814;9.132;2022-10-16T21:34:11;16.50;99.90
678;DHT22;321;48.814;9.132;2022-10-16T21:36:39;16.50;99.90
678;DHT22;321;48.814;9.132;2022-10-16T21:39:13;16.20;99.90
678;DHT22;321;48.814;9.132;2022-10-16T21:41:43;16.30;99.90
678;DHT22;321;48.814;9.132;2022-10-16T21:44:10;16.20;99.90
678;DHT22;321;48.814;9.132;2022-10-16T21:46:38;16.10;99.90
678;DHT22;321;48.814;9.132;2022-10-16T21:49:05;16.00;99.90
678;DHT22;321;48.814;9.132;2022-10-16T21:51:49;15.90;99.90
678;DHT22;321;48.814;9.132;2022-10-16T21:54:19;15.90;99.90
678;DHT22;321;48.814;9.132;2022-10-16T21:56:45;15.90;99.90